METAR Data
IDs: Format: Raw Decoded Include TAF

Data at: 0813 UTC 03 Aug 2021

KVCV 022345Z AUTO 16006G13KT 10SM CLR 39/02 A3004 RMK DA6100
KVCV 022245Z AUTO 03008KT 10SM CLR 39/01 A3006 RMK DA6100
KVCV 022220Z AUTO 36003KT 10SM CLR 38/00 A3008 RMK DA6000
KVCV 022145Z AUTO 01003KT 10SM CLR 38/00 A3008 RMK DA6000
KVCV 021945Z AUTO 03007KT 10SM CLR 37/01 A3013 RMK DA5800
KVCV 021845Z AUTO 01005KT 10SM CLR 35/M01 A3015 RMK DA5600
KVCV 021645Z AUTO 22006KT 10SM CLR 33/00 A3018 RMK DA5300
KVCV 021545Z AUTO 14006KT 10SM CLR 30/02 A3018 RMK DA5000
KVCV 021445Z AUTO 14006KT 10SM CLR 26/04 A3018
KVCV 021345Z AUTO 15006KT 10SM CLR 24/05 A3017
KVCV 021245Z AUTO 13006KT 10SM CLR 22/05 A3016
KVCV 020245Z AUTO 24014KT 10SM CLR 34/M02 A3009 RMK DA5500
KVCV 020145Z AUTO 24014KT 10SM CLR 36/M01 A3007 RMK DA5800
KVCV 020045Z AUTO 16015KT 10SM CLR 37/05 A3007 RMK DA5900
KVCV 012345Z AUTO 16015KT 10SM CLR 37/05 A3007 RMK DA6000
KVCV 012245Z AUTO 00000KT 10SM CLR 37/06 A3009 RMK DA5900
KVCV 012145Z AUTO 00000KT 10SM CLR 37/05 A3010 RMK DA5900
KVCV 012045Z AUTO 13006KT 10SM CLR 37/05 A3011 RMK DA5900